GXF Airport (Gila Bend Af Aux) Information

FAA: GXF - ICAO: KGXF

GXF Airport Location

State Arizona
County Maricopa
City Gila Bend
GXF Airport is 3 miles south of Gila Bend, AZ.
Latitude 32-53-16.2500N
Longitude 112-43-10.5950W
Elevation 883ft

KGXF Airport METARs

METAR KGXF 292258Z 35010KT 10SM CLR 28/M06 A2996 RMK AO2A SLP138 T02751056 $
Altimeter 29.96"
Temperature 27.5°C (81.5°F)
Wind 350° at 10KT
Clouds Skies are clear.
Visibility 10.0mi
Time observed: 2021-11-29T22:58:00Z

GXF Airport Details

Status Operational
Activation July 1942
Ownership Military - Air Force
Usage Private
Chart PHOENIX
ATC on-site Yes
Beacon schedule sunset-sunrise
Beacon color clear green

GXF Airport Contacts

Owner USAF
Owner address LUKE AFB, GLENDALE, AZ 85301
Owner phone N/A
Manager DIRECTOR, 56 RMO
Manager address 7101 JERSTAD, LUKE AFB, AZ 85309-1647
Manager phone 623-856-5855

GXF Airport (Gila Bend Af Aux) Radio Frequencies

GXF (Airport) Radio Frequencies

UNICOM N/A
Common traffic advisory frequency (CTAF) N/A